Great Hebei — VRFU6 — position and weather

sailwx.info

Track history (hours):
 
Tides and Currents Weather Stations Pressure Air Temp Water Temp Dewpoint Dewpoint Depression Visibility Wind Speed Wind Dir Waves Ship Positions

Great Hebei

Last reported at 2014-Oct-11 08:33 UTC. Time now 2014-Oct-24 08:31 UTC.
Position N 35°16' E 119°59'.
Warning: this ship's position is 12 days out of date.

Length 295 m; draft 15 m.

Type: Cargo ship. MMSI: 477617100.

Date/timePositionNaut miles runAvg speedWind from/ knotsBaromVisibWave heightAir tempDewpointWater temp
2014-Oct-11 08:33N 35°16' E 119°59'9 8.6
2014-Oct-11 07:33N 35°15' E 119°48'9 9.2
2014-Oct-11 06:33N 35°19' E 119°38'5 2.4
2014-Oct-11 04:27N 35°21' E 119°33'0 0.0
2014-Oct-11 03:33N 35°21' E 119°33'0 0.0
2014-Oct-11 02:33N 35°21' E 119°33'0 0.0
2014-Oct-11 01:33N 35°21' E 119°33'0 0.0
2014-Oct-11 00:33N 35°21' E 119°33'0 0.0
2014-Oct-10 23:21N 35°21' E 119°33'0 0.0
2014-Oct-10 22:33N 35°21' E 119°33'0 0.0
2014-Oct-10 21:33N 35°21' E 119°33'0 0.1
2014-Oct-10 20:33N 35°21' E 119°33'0 0.0
2014-Oct-10 19:27N 35°21' E 119°33'0 0.0
2014-Oct-10 18:15N 35°21' E 119°33'0 0.1
2014-Oct-10 17:33N 35°21' E 119°33'0 0.0
2014-Oct-10 16:33N 35°21' E 119°33'0 0.0
2014-Oct-10 15:33N 35°21' E 119°33'0 0.0
2014-Oct-10 14:33N 35°21' E 119°33'0 0.0
2014-Oct-10 13:33N 35°21' E 119°33'0 0.0
2014-Oct-10 12:33N 35°21' E 119°33'0 0.0
2014-Oct-10 11:21N 35°21' E 119°33'0 0.0
2014-Oct-10 10:27N 35°21' E 119°33'0 0.0
2014-Oct-10 09:33N 35°21' E 119°33'0 0.0
2014-Oct-10 08:21N 35°21' E 119°33'0 0.1
2014-Oct-10 07:27N 35°21' E 119°33'0 0.0
2014-Oct-10 06:21N 35°21' E 119°33'0 0.0
2014-Oct-10 05:33N 35°21' E 119°33'0 0.0
2014-Oct-10 04:21N 35°21' E 119°33'0 0.0
2014-Oct-10 03:21N 35°21' E 119°33'0 0.0
2014-Oct-10 02:33N 35°21' E 119°33'0 0.0
2014-Oct-10 01:27N 35°21' E 119°33'0 0.0
2014-Oct-10 00:33N 35°21' E 119°33'0 0.0
2014-Oct-09 23:33N 35°21' E 119°33'0 0.0
2014-Oct-09 22:27N 35°21' E 119°33'0 0.0
2014-Oct-09 21:33N 35°21' E 119°33'0 0.0
2014-Oct-09 20:33N 35°21' E 119°33'0 0.0
2014-Oct-09 19:27N 35°21' E 119°33'0 0.1
2014-Oct-09 18:33N 35°21' E 119°33'0 0.0
2014-Oct-09 17:33N 35°21' E 119°33'0 0.0
2014-Oct-09 16:33N 35°21' E 119°33'0 0.0
2014-Oct-09 15:33N 35°21' E 119°33'0 0.0
2014-Oct-09 14:33N 35°21' E 119°33'0 0.0
2014-Oct-09 13:33N 35°21' E 119°33'0 0.0
2014-Oct-09 12:33N 35°21' E 119°33'0 0.0
2014-Oct-09 10:03N 35°21' E 119°33'0 0.1
2014-Oct-09 09:33N 35°21' E 119°33'0 0.0
2014-Oct-09 08:33N 35°21' E 119°33'0 0.0
2014-Oct-09 07:34N 35°21' E 119°33'0 0.0
2014-Oct-09 06:28N 35°21' E 119°33'0 0.1
2014-Oct-09 05:34N 35°21' E 119°33'0 0.0
2014-Oct-09 04:28N 35°21' E 119°33'0 0.1
2014-Oct-09 03:34N 35°21' E 119°33'0 0.0
2014-Oct-09 02:28N 35°21' E 119°33'0 0.0
2014-Oct-09 01:16N 35°21' E 119°33'0 0.0
2014-Oct-09 00:22N 35°21' E 119°33'0 0.0
2014-Oct-08 23:26N 35°21' E 119°33'0 0.2
2014-Oct-08 22:33N 35°21' E 119°33'7 7.3
2014-Oct-08 21:33N 35°18' E 119°40'7 7.4
2014-Oct-08 20:33N 35°14' E 119°49'3 2.9
2014-Oct-08 19:32N 35°14' E 119°52'2 2.4
2014-Oct-08 18:31N 35°15' E 119°49'0 0.1
2014-Oct-08 17:31N 35°15' E 119°49'0 0.1
2014-Oct-08 16:19N 35°15' E 119°50'0 0.1
2014-Oct-08 15:31N 35°15' E 119°50'0 0.1
2014-Oct-08 14:25N 35°15' E 119°50'0 0.0
2014-Oct-08 13:25N 35°15' E 119°50'0 0.0
2014-Oct-08 12:31N 35°15' E 119°50'0 0.1
2014-Oct-08 11:31N 35°15' E 119°50'0 0.2
2014-Oct-08 10:31N 35°15' E 119°49'0 0.0
2014-Oct-08 09:25N 35°15' E 119°49'0 0.0
2014-Oct-08 08:31N 35°15' E 119°49'0 0.1
2014-Oct-08 07:31N 35°15' E 119°49'0 0.1
2014-Oct-08 06:31N 35°15' E 119°49'1 0.9
2014-Oct-08 05:33N 35°15' E 119°50'5 5.0
2014-Oct-08 04:31N 35°14' E 119°56'32 8.1
2014-Oct-08 00:33N 34°46' E 119°35'8 8.2
2014-Oct-07 23:33N 34°45' E 119°25'0 0.2
2014-Oct-07 22:33N 34°45' E 119°25'0 0.0
2014-Oct-07 21:33N 34°45' E 119°25'0 0.0
2014-Oct-07 20:33N 34°45' E 119°25'0 0.0
2014-Oct-07 19:33N 34°45' E 119°25'0 0.0
2014-Oct-07 18:33N 34°45' E 119°25'0 0.0
2014-Oct-07 17:33N 34°45' E 119°25'0 0.0
2014-Oct-07 16:33N 34°45' E 119°25'0 0.0
2014-Oct-07 15:33N 34°45' E 119°25'0 0.0
2014-Oct-07 14:33N 34°45' E 119°25'0 0.0
2014-Oct-07 13:33N 34°45' E 119°25'0 0.0
2014-Oct-07 12:33N 34°45' E 119°25'0 0.0
2014-Oct-07 11:33N 34°45' E 119°25'0 0.0
2014-Oct-07 10:33N 34°45' E 119°25'0 0.0
2014-Oct-07 09:33N 34°45' E 119°25'0 0.0
2014-Oct-07 08:33N 34°45' E 119°25'0 0.0
2014-Oct-07 07:33N 34°45' E 119°25'0 0.0
2014-Oct-07 06:33N 34°45' E 119°25'0 0.0
2014-Oct-07 05:33N 34°45' E 119°25'0 0.0
2014-Oct-07 04:33N 34°45' E 119°25'0 0.0
2014-Oct-07 03:33N 34°45' E 119°25'0 0.0
2014-Oct-07 02:33N 34°45' E 119°25'0 0.0
2014-Oct-07 01:33N 34°45' E 119°25'0 0.0
2014-Oct-07 00:33N 34°45' E 119°25'0 0.0
2014-Oct-06 23:33N 34°45' E 119°25'0 0.0
2014-Oct-06 22:33N 34°45' E 119°25'0 0.0
2014-Oct-06 21:33N 34°45' E 119°25'0 0.0
2014-Oct-06 20:33N 34°45' E 119°25'0 0.0
2014-Oct-06 19:33N 34°45' E 119°25'0 0.0
2014-Oct-06 18:33N 34°45' E 119°25'0 0.0
2014-Oct-06 17:33N 34°45' E 119°25'0 0.0
2014-Oct-06 16:33N 34°45' E 119°25'0 0.0
2014-Oct-06 15:33N 34°45' E 119°25'0 0.0
2014-Oct-06 14:33N 34°45' E 119°25'0 0.0
2014-Oct-06 13:33N 34°45' E 119°25'0 0.0
2014-Oct-06 12:33N 34°45' E 119°25'0 0.0
2014-Oct-06 11:33N 34°45' E 119°25'0 0.0
2014-Oct-06 10:33N 34°45' E 119°25'0 0.0
2014-Oct-06 09:33N 34°45' E 119°25'0 0.1
2014-Oct-06 08:33N 34°45' E 119°25'7 6.7
2014-Oct-06 07:30N 34°46' E 119°34'302 7.5
2014-Oct-04 15:28N 30°47' E 123°14'  
Track history (hours):
 
Tides and Currents Weather Stations Pressure Air Temp Water Temp Dewpoint Dewpoint Depression Visibility Wind Speed Wind Dir Waves Ship Positions

Great Hebei

Last reported at 2014-Oct-11 08:33 UTC. Time now 2014-Oct-24 08:31 UTC.
Position N 35°16' E 119°59'.
Warning: this ship's position is 12 days out of date.

Length 295 m; draft 15 m.

Type: Cargo ship. MMSI: 477617100.

Date/timePositionNaut miles runAvg speedWind from/ knotsBaromVisibWave heightAir tempDewpointWater temp
2014-Oct-11 08:33N 35°16' E 119°59'9 8.6
2014-Oct-11 07:33N 35°15' E 119°48'9 9.2
2014-Oct-11 06:33N 35°19' E 119°38'5 2.4
2014-Oct-11 04:27N 35°21' E 119°33'0 0.0
2014-Oct-11 03:33N 35°21' E 119°33'0 0.0
2014-Oct-11 02:33N 35°21' E 119°33'0 0.0
2014-Oct-11 01:33N 35°21' E 119°33'0 0.0
2014-Oct-11 00:33N 35°21' E 119°33'0 0.0
2014-Oct-10 23:21N 35°21' E 119°33'0 0.0
2014-Oct-10 22:33N 35°21' E 119°33'0 0.0
2014-Oct-10 21:33N 35°21' E 119°33'0 0.1
2014-Oct-10 20:33N 35°21' E 119°33'0 0.0
2014-Oct-10 19:27N 35°21' E 119°33'0 0.0
2014-Oct-10 18:15N 35°21' E 119°33'0 0.1
2014-Oct-10 17:33N 35°21' E 119°33'0 0.0
2014-Oct-10 16:33N 35°21' E 119°33'0 0.0
2014-Oct-10 15:33N 35°21' E 119°33'0 0.0
2014-Oct-10 14:33N 35°21' E 119°33'0 0.0
2014-Oct-10 13:33N 35°21' E 119°33'0 0.0
2014-Oct-10 12:33N 35°21' E 119°33'0 0.0
2014-Oct-10 11:21N 35°21' E 119°33'0 0.0
2014-Oct-10 10:27N 35°21' E 119°33'0 0.0
2014-Oct-10 09:33N 35°21' E 119°33'0 0.0
2014-Oct-10 08:21N 35°21' E 119°33'0 0.1
2014-Oct-10 07:27N 35°21' E 119°33'0 0.0
2014-Oct-10 06:21N 35°21' E 119°33'0 0.0
2014-Oct-10 05:33N 35°21' E 119°33'0 0.0
2014-Oct-10 04:21N 35°21' E 119°33'0 0.0
2014-Oct-10 03:21N 35°21' E 119°33'0 0.0
2014-Oct-10 02:33N 35°21' E 119°33'0 0.0
2014-Oct-10 01:27N 35°21' E 119°33'0 0.0
2014-Oct-10 00:33N 35°21' E 119°33'0 0.0
2014-Oct-09 23:33N 35°21' E 119°33'0 0.0
2014-Oct-09 22:27N 35°21' E 119°33'0 0.0
2014-Oct-09 21:33N 35°21' E 119°33'0 0.0
2014-Oct-09 20:33N 35°21' E 119°33'0 0.0
2014-Oct-09 19:27N 35°21' E 119°33'0 0.1
2014-Oct-09 18:33N 35°21' E 119°33'0 0.0
2014-Oct-09 17:33N 35°21' E 119°33'0 0.0
2014-Oct-09 16:33N 35°21' E 119°33'0 0.0
2014-Oct-09 15:33N 35°21' E 119°33'0 0.0
2014-Oct-09 14:33N 35°21' E 119°33'0 0.0
2014-Oct-09 13:33N 35°21' E 119°33'0 0.0
2014-Oct-09 12:33N 35°21' E 119°33'0 0.0
2014-Oct-09 10:03N 35°21' E 119°33'0 0.1
2014-Oct-09 09:33N 35°21' E 119°33'0 0.0
2014-Oct-09 08:33N 35°21' E 119°33'0 0.0
2014-Oct-09 07:34N 35°21' E 119°33'0 0.0
2014-Oct-09 06:28N 35°21' E 119°33'0 0.1
2014-Oct-09 05:34N 35°21' E 119°33'0 0.0
2014-Oct-09 04:28N 35°21' E 119°33'0 0.1
2014-Oct-09 03:34N 35°21' E 119°33'0 0.0
2014-Oct-09 02:28N 35°21' E 119°33'0 0.0
2014-Oct-09 01:16N 35°21' E 119°33'0 0.0
2014-Oct-09 00:22N 35°21' E 119°33'0 0.0
2014-Oct-08 23:26N 35°21' E 119°33'0 0.2
2014-Oct-08 22:33N 35°21' E 119°33'7 7.3
2014-Oct-08 21:33N 35°18' E 119°40'7 7.4
2014-Oct-08 20:33N 35°14' E 119°49'3 2.9
2014-Oct-08 19:32N 35°14' E 119°52'2 2.4
2014-Oct-08 18:31N 35°15' E 119°49'0 0.1
2014-Oct-08 17:31N 35°15' E 119°49'0 0.1
2014-Oct-08 16:19N 35°15' E 119°50'0 0.1
2014-Oct-08 15:31N 35°15' E 119°50'0 0.1
2014-Oct-08 14:25N 35°15' E 119°50'0 0.0
2014-Oct-08 13:25N 35°15' E 119°50'0 0.0
2014-Oct-08 12:31N 35°15' E 119°50'0 0.1
2014-Oct-08 11:31N 35°15' E 119°50'0 0.2
2014-Oct-08 10:31N 35°15' E 119°49'0 0.0
2014-Oct-08 09:25N 35°15' E 119°49'0 0.0
2014-Oct-08 08:31N 35°15' E 119°49'0 0.1
2014-Oct-08 07:31N 35°15' E 119°49'0 0.1
2014-Oct-08 06:31N 35°15' E 119°49'1 0.9
2014-Oct-08 05:33N 35°15' E 119°50'5 5.0
2014-Oct-08 04:31N 35°14' E 119°56'32 8.1
2014-Oct-08 00:33N 34°46' E 119°35'8 8.2
2014-Oct-07 23:33N 34°45' E 119°25'0 0.2
2014-Oct-07 22:33N 34°45' E 119°25'0 0.0
2014-Oct-07 21:33N 34°45' E 119°25'0 0.0
2014-Oct-07 20:33N 34°45' E 119°25'0 0.0
2014-Oct-07 19:33N 34°45' E 119°25'0 0.0
2014-Oct-07 18:33N 34°45' E 119°25'0 0.0
2014-Oct-07 17:33N 34°45' E 119°25'0 0.0
2014-Oct-07 16:33N 34°45' E 119°25'0 0.0
2014-Oct-07 15:33N 34°45' E 119°25'0 0.0
2014-Oct-07 14:33N 34°45' E 119°25'0 0.0
2014-Oct-07 13:33N 34°45' E 119°25'0 0.0
2014-Oct-07 12:33N 34°45' E 119°25'0 0.0
2014-Oct-07 11:33N 34°45' E 119°25'0 0.0
2014-Oct-07 10:33N 34°45' E 119°25'0 0.0
2014-Oct-07 09:33N 34°45' E 119°25'0 0.0
2014-Oct-07 08:33N 34°45' E 119°25'0 0.0
2014-Oct-07 07:33N 34°45' E 119°25'0 0.0
2014-Oct-07 06:33N 34°45' E 119°25'0 0.0
2014-Oct-07 05:33N 34°45' E 119°25'0 0.0
2014-Oct-07 04:33N 34°45' E 119°25'0 0.0
2014-Oct-07 03:33N 34°45' E 119°25'0 0.0
2014-Oct-07 02:33N 34°45' E 119°25'0 0.0
2014-Oct-07 01:33N 34°45' E 119°25'0 0.0
2014-Oct-07 00:33N 34°45' E 119°25'0 0.0
2014-Oct-06 23:33N 34°45' E 119°25'0 0.0
2014-Oct-06 22:33N 34°45' E 119°25'0 0.0
2014-Oct-06 21:33N 34°45' E 119°25'0 0.0
2014-Oct-06 20:33N 34°45' E 119°25'0 0.0
2014-Oct-06 19:33N 34°45' E 119°25'0 0.0
2014-Oct-06 18:33N 34°45' E 119°25'0 0.0
2014-Oct-06 17:33N 34°45' E 119°25'0 0.0
2014-Oct-06 16:33N 34°45' E 119°25'0 0.0
2014-Oct-06 15:33N 34°45' E 119°25'0 0.0
2014-Oct-06 14:33N 34°45' E 119°25'0 0.0
2014-Oct-06 13:33N 34°45' E 119°25'0 0.0
2014-Oct-06 12:33N 34°45' E 119°25'0 0.0
2014-Oct-06 11:33N 34°45' E 119°25'0 0.0
2014-Oct-06 10:33N 34°45' E 119°25'0 0.0
2014-Oct-06 09:33N 34°45' E 119°25'0 0.1
2014-Oct-06 08:33N 34°45' E 119°25'7 6.7
2014-Oct-06 07:30N 34°46' E 119°34'302 7.5
2014-Oct-04 15:28N 30°47' E 123°14'  

Dump ship's entire track history